Hovedside
METAR-TAF:

METAR-TAF

Lufthavner :

Rørvik lufthavn. Ryum

Rørvik, Norge

breddegrad: 64-50N, lengdegrad: 011-09E, høyde over havet: 4 m

Gjeldene værobservasjon

Denne rapporten ble laget for 8 timer og 27 minutter siden, klokken 19:50 UTC
Vind 8 kt fra Nordvest, skiftende mellom Vest og Nord-nordvest
Temperatur 4°C
Luftfuktighet 87%
Trykk 997 hPa
Sikt 10 km eller mer
Få skyer i en høyde av 800 ft
Brutte skyer i en høyde av 1500 ft, Bygeskyer.
regnbyger

METAR: ENRM 231950Z 31008KT 280V340 9999 SHRA FEW008 BKN015CB 04/02 Q0997

Tid: 06:17 (04:17 UTC)


TAF: fraværende

Værobservasjoner og værvarsel for over 4000 flyplasser (METAR- og TAF-rapporter).

Tilgjengelige stasjoner er representert av de røde og gule prikkene på kartet.

Hold musepekeren over prikken for å se navnet på stasjonen.

Klikk så for å se værobservasjoner og -varsler.

For å forandre kartet kan du klikke på den grønne knappen med svart kryss for å zoome inn, på den grønne knappen med strek for å zoome ut, eller på de grønne pilene for å se tilstøtende kart.


METAR-TAF: